Time;durP1;ratioP1;P1;durP2;ratioP2;P2;SDS_P1;SDS_P2;PMS_P1;PMS_P2;Temp;Humidity;BMP_temperature;BMP_pressure;BME280_temperature;BME280_humidity;BME280_pressure;Samples;Min_cycle;Max_cycle;Signal;HPM_P1;HPM_P2
2021/03/26 00:00:11;;;;;;;13.40;7.30;;;;;;;7.46;88.13;100874.72;630388;225;32662;-76
2021/03/26 00:02:39;;;;;;;10.30;6.80;;;;;;;7.35;88.90;100875.94;621156;226;24812;-76
2021/03/26 00:05:09;;;;;;;13.27;7.67;;;;;;;7.69;87.08;100866.12;621872;228;33268;-77
2021/03/26 00:07:37;;;;;;;13.78;7.67;;;;;;;7.87;86.19;100864.42;620581;229;33028;-76
2021/03/26 00:10:06;;;;;;;13.83;8.17;;;;;;;7.48;86.91;100872.02;626515;228;23687;-77
2021/03/26 00:12:34;;;;;;;12.17;7.17;;;;;;;7.38;87.29;100864.90;622551;225;24871;-75
2021/03/26 00:15:02;;;;;;;12.13;7.10;;;;;;;7.36;87.86;100872.41;628076;228;24865;-76
2021/03/26 00:17:29;;;;;;;11.53;6.73;;;;;;;7.26;88.01;100874.81;627142;228;26975;-76
2021/03/26 00:19:57;;;;;;;12.87;7.57;;;;;;;7.21;88.96;100870.91;639000;225;24825;-76
2021/03/26 00:22:25;;;;;;;10.90;7.30;;;;;;;7.15;89.70;100874.26;624484;226;27998;-76
2021/03/26 00:24:53;;;;;;;11.57;7.80;;;;;;;7.22;89.30;100869.97;624649;228;24808;-77
2021/03/26 00:27:21;;;;;;;14.33;8.00;;;;;;;7.22;89.55;100873.85;639252;224;24764;-76
2021/03/26 00:29:49;;;;;;;12.13;7.50;;;;;;;7.28;88.97;100869.06;634801;225;24895;-76
2021/03/26 00:32:17;;;;;;;10.87;7.57;;;;;;;7.29;89.07;100869.88;640402;220;24822;-75
2021/03/26 00:34:44;;;;;;;13.70;7.70;;;;;;;7.29;88.32;100862.12;625127;229;24928;-76
2021/03/26 00:37:12;;;;;;;13.23;7.00;;;;;;;7.22;88.98;100861.74;627405;229;24866;-76
2021/03/26 00:39:40;;;;;;;11.10;7.10;;;;;;;7.12;89.36;100861.55;638265;223;24771;-76
2021/03/26 00:42:08;;;;;;;13.57;7.43;;;;;;;7.16;88.78;100854.39;638584;224;24766;-77
2021/03/26 00:44:36;;;;;;;13.80;8.03;;;;;;;7.08;88.36;100855.41;638064;225;24764;-77
2021/03/26 00:47:04;;;;;;;14.37;9.33;;;;;;;7.04;89.25;100857.39;636555;223;24760;-76
2021/03/26 00:49:32;;;;;;;13.30;9.50;;;;;;;7.33;88.96;100848.88;621621;228;44178;-75
2021/03/26 00:52:00;;;;;;;23.50;10.43;;;;;;;6.90;91.22;100863.13;626061;225;23704;-76
2021/03/26 00:54:28;;;;;;;14.70;9.20;;;;;;;6.70;92.90;100871.79;625047;228;24824;-76
2021/03/26 00:56:56;;;;;;;15.20;8.63;;;;;;;6.60;93.85;100864.28;628483;228;24878;-76
2021/03/26 00:59:24;;;;;;;14.97;9.20;;;;;;;6.76;93.14;100865.39;627677;228;24849;-76
2021/03/26 01:01:52;;;;;;;11.77;8.13;;;;;;;6.88;92.59;100859.36;629510;222;24826;-75
2021/03/26 01:04:20;;;;;;;12.57;8.27;;;;;;;6.89;91.49;100858.42;630361;226;24881;-75
2021/03/26 01:06:47;;;;;;;13.43;9.13;;;;;;;7.00;90.84;100855.93;618930;229;24885;-76
2021/03/26 01:09:15;;;;;;;13.87;9.50;;;;;;;6.88;91.00;100855.95;639420;224;24827;-76
2021/03/26 01:11:43;;;;;;;14.57;8.40;;;;;;;6.90;90.49;100848.47;639377;221;24804;-75
2021/03/26 01:14:12;;;;;;;15.00;9.00;;;;;;;6.88;90.24;100849.02;637713;224;24795;-76
2021/03/26 01:16:40;;;;;;;10.60;7.60;;;;;;;6.81;89.75;100854.27;638329;225;24756;-76
2021/03/26 01:19:08;;;;;;;11.40;7.47;;;;;;;6.69;90.94;100847.34;627954;228;28045;-76
2021/03/26 01:21:36;;;;;;;12.93;8.30;;;;;;;6.83;90.31;100847.22;624289;226;24789;-75
2021/03/26 01:24:04;;;;;;;12.20;8.70;;;;;;;6.74;91.48;100849.13;636660;225;24778;-76
2021/03/26 01:26:32;;;;;;;14.60;8.30;;;;;;;7.30;88.74;100836.14;619658;228;32796;-75
2021/03/26 01:29:00;;;;;;;14.00;8.20;;;;;;;6.87;90.26;100837.02;627301;227;23689;-76
2021/03/26 01:31:28;;;;;;;13.93;8.67;;;;;;;6.63;92.01;100838.73;640857;220;24805;-76
2021/03/26 01:33:56;;;;;;;14.73;8.83;;;;;;;6.65;92.28;100844.61;632809;225;25117;-75
2021/03/26 01:36:23;;;;;;;15.50;10.20;;;;;;;7.31;89.31;100830.50;624603;223;33076;-76
2021/03/26 01:38:51;;;;;;;13.18;10.08;;;;;;;7.34;88.03;100824.66;622486;225;32798;-76
2021/03/26 01:41:28;;;;;;;14.40;8.90;;;;;;;6.85;90.25;100833.72;630200;225;24834;-76
2021/03/26 01:43:56;;;;;;;13.60;8.33;;;;;;;6.60;91.42;100836.33;625997;229;27975;-76
2021/03/26 01:46:26;;;;;;;11.00;8.10;;;;;;;6.59;91.83;100834.67;635807;225;24833;-76
2021/03/26 01:48:53;;;;;;;10.90;8.00;;;;;;;6.53;91.39;100830.30;625499;229;27995;-75
2021/03/26 01:51:21;;;;;;;15.58;9.35;;;;;;;6.69;91.19;100824.91;622490;228;32992;-75
2021/03/26 01:53:49;;;;;;;14.93;8.83;;;;;;;6.44;91.34;100825.73;626863;225;25841;-76
2021/03/26 01:56:17;;;;;;;12.60;8.20;;;;;;;6.32;93.29;100825.27;630561;227;24926;-76
2021/03/26 01:58:45;;;;;;;16.23;8.87;;;;;;;6.16;93.94;100829.80;630583;225;24827;-76
2021/03/26 02:01:13;;;;;;;14.98;9.58;;;;;;;6.57;92.47;100817.98;632678;224;33134;-77
2021/03/26 02:03:41;;;;;;;13.72;9.50;;;;;;;6.70;90.33;100807.17;634555;221;32890;-75
2021/03/26 02:06:09;;;;;;;15.72;10.03;;;;;;;6.82;89.70;100808.91;616399;229;32897;-77
2021/03/26 02:08:37;;;;;;;15.50;8.17;;;;;;;6.10;91.66;100813.44;621461;229;23691;-77
2021/03/26 02:11:05;;;;;;;10.80;7.97;;;;;;;5.97;92.25;100816.46;627323;226;24866;-76
2021/03/26 02:13:33;;;;;;;10.67;8.30;;;;;;;5.87;92.18;100817.02;630284;225;24832;-76
2021/03/26 02:16:02;;;;;;;14.27;8.57;;;;;;;5.88;93.78;100813.52;636971;225;28009;-76
2021/03/26 02:18:29;;;;;;;11.90;8.50;;;;;;;5.75;95.11;100820.39;638077;224;25176;-76
2021/03/26 02:20:57;;;;;;;14.03;8.90;;;;;;;5.55;95.44;100826.02;637317;224;24793;-75
2021/03/26 02:23:25;;;;;;;11.50;7.93;;;;;;;5.66;95.17;100818.42;627537;225;24822;-76
2021/03/26 02:25:53;;;;;;;14.43;8.17;;;;;;;5.65;95.29;100818.89;627109;225;27071;-77
2021/03/26 02:28:21;;;;;;;14.43;9.53;;;;;;;5.78;95.73;100820.69;624167;226;24817;-76
2021/03/26 02:30:49;;;;;;;16.57;9.27;;;;;;;5.78;95.97;100816.35;628969;225;24843;-76
2021/03/26 02:33:17;;;;;;;17.47;9.67;;;;;;;5.70;97.12;100815.17;625617;225;24841;-76
2021/03/26 02:35:45;;;;;;;18.63;10.67;;;;;;;5.79;96.89;100812.84;640288;223;24818;-76
2021/03/26 02:38:14;;;;;;;20.13;11.43;;;;;;;5.76;96.95;100811.72;640192;224;25095;-76
2021/03/26 02:40:42;;;;;;;19.43;11.23;;;;;;;5.69;98.06;100814.35;640555;224;24803;-76
2021/03/26 02:43:17;;;;;;;16.30;11.20;;;;;;;5.68;98.93;100817.86;625200;226;24827;-76
2021/03/26 02:45:46;;;;;;;21.43;10.93;;;;;;;5.92;98.62;100818.06;624422;228;24905;-76
2021/03/26 02:48:14;;;;;;;18.90;12.15;;;;;;;6.31;96.40;100802.95;629225;225;33185;-76
2021/03/26 02:50:47;;;;;;;18.37;11.40;;;;;;;6.10;95.21;100811.68;633348;224;23728;-76
2021/03/26 02:53:16;;;;;;;16.63;10.83;;;;;;;5.93;96.26;100808.10;640387;220;24847;-76
2021/03/26 02:55:44;;;;;;;18.80;12.28;;;;;;;6.30;94.08;100797.89;634108;224;33138;-77
2021/03/26 02:58:12;;;;;;;15.87;11.53;;;;;;;5.97;94.97;100806.13;635254;224;23692;-77
2021/03/26 03:00:40;;;;;;;17.93;10.97;;;;;;;5.91;95.42;100808.64;634895;224;25912;-76
2021/03/26 03:03:08;;;;;;;16.73;10.10;;;;;;;5.87;94.80;100808.45;633591;224;24838;-76
2021/03/26 03:05:36;;;;;;;15.20;10.23;;;;;;;5.79;95.49;100810.72;639396;224;24826;-76
2021/03/26 03:08:04;;;;;;;17.20;10.50;;;;;;;5.72;95.89;100805.11;626432;229;24813;-77
2021/03/26 03:10:33;;;;;;;16.27;10.50;;;;;;;5.70;95.42;100812.13;627001;228;26382;-75
2021/03/26 03:13:03;;;;;;;21.48;12.68;;;;;;;5.83;95.09;100810.41;634400;221;32768;-75
2021/03/26 03:15:31;;;;;;;18.97;11.63;;;;;;;5.33;97.16;100813.64;638103;224;23701;-76
2021/03/26 03:17:59;;;;;;;17.90;11.80;;;;;;;5.31;97.60;100813.74;633718;224;32777;-76
2021/03/26 03:20:29;;;;;;;16.20;12.40;;;;;;;5.03;99.74;100815.92;639242;224;24810;-76
2021/03/26 03:22:58;;;;;;;19.83;10.23;;;;;;;4.93;99.64;100815.31;638587;225;24772;-78
2021/03/26 03:25:26;;;;;;;18.43;10.23;;;;;;;4.91;99.38;100813.27;627774;228;24830;-78
2021/03/26 03:27:55;;;;;;;17.77;10.70;;;;;;;4.90;99.07;100807.75;625883;229;24797;-78
2021/03/26 03:30:25;;;;;;;15.57;10.07;;;;;;;5.11;99.38;100809.02;626787;229;24827;-76
2021/03/26 03:32:56;;;;;;;20.87;11.20;;;;;;;5.31;97.80;100806.00;637596;223;24804;-77
2021/03/26 03:35:25;;;;;;;18.17;12.00;;;;;;;5.25;97.60;100797.38;638859;225;24821;-76
2021/03/26 03:37:57;;;;;;;16.50;11.70;;;;;;;5.44;97.23;100794.91;637031;225;24861;-76
2021/03/26 03:40:26;;;;;;;15.80;10.20;;;;;;;5.30;97.33;100794.50;639617;223;25323;-76
2021/03/26 03:42:55;;;;;;;20.07;10.50;;;;;;;5.40;97.93;100794.75;625575;226;25121;-76
2021/03/26 03:45:23;;;;;;;21.90;12.17;;;;;;;5.31;99.31;100795.69;636797;224;24810;-76
2021/03/26 03:47:51;;;;;;;21.05;14.00;;;;;;;5.69;98.54;100794.17;631957;225;32561;-75
2021/03/26 03:50:19;;;;;;;22.73;12.37;;;;;;;5.51;98.82;100793.15;624378;229;23695;-75
2021/03/26 03:52:50;;;;;;;17.67;11.27;;;;;;;5.49;99.40;100794.15;640868;221;25212;-76
2021/03/26 03:55:19;;;;;;;24.80;13.13;;;;;;;5.41;99.26;100784.80;639368;224;24822;-75
2021/03/26 03:57:46;;;;;;;23.47;12.20;;;;;;;5.48;98.39;100778.31;638915;222;28005;-75
2021/03/26 04:00:17;;;;;;;16.10;11.23;;;;;;;5.40;98.38;100780.57;641470;223;24809;-76
2021/03/26 04:02:45;;;;;;;18.17;10.50;;;;;;;5.41;98.00;100780.47;638837;224;24783;-76
2021/03/26 04:05:14;;;;;;;20.43;11.33;;;;;;;5.00;98.96;100781.33;625969;228;26050;-76
2021/03/26 04:07:42;;;;;;;14.93;9.00;;;;;;;4.95;98.24;100774.81;626292;229;24828;-76
2021/03/26 04:10:10;;;;;;;12.97;8.70;;;;;;;4.80;97.27;100768.03;639486;223;24772;-76
2021/03/26 04:12:38;;;;;;;14.10;9.63;;;;;;;4.79;96.83;100767.66;628803;226;24826;-76
2021/03/26 04:15:09;;;;;;;13.50;9.27;;;;;;;4.65;96.31;100768.52;626611;229;24846;-76
2021/03/26 04:17:37;;;;;;;11.57;8.87;;;;;;;4.55;96.48;100766.12;638437;224;24813;-76
2021/03/26 04:20:07;;;;;;;13.83;8.70;;;;;;;4.38;96.69;100763.27;638883;224;24784;-75
2021/03/26 04:22:36;;;;;;;13.17;8.53;;;;;;;4.36;96.39;100771.52;625586;225;24900;-76
2021/03/26 04:25:05;;;;;;;17.23;10.53;;;;;;;4.72;97.05;100765.91;630889;225;25153;-76
2021/03/26 04:27:32;;;;;;;15.80;9.50;;;;;;;4.75;97.52;100769.12;634952;225;24881;-75
2021/03/26 04:30:01;;;;;;;14.87;9.53;;;;;;;4.76;96.13;100759.17;636680;225;24941;-76
2021/03/26 04:32:28;;;;;;;14.90;9.27;;;;;;;4.71;94.61;100762.51;639632;221;24799;-76
2021/03/26 04:34:56;;;;;;;13.77;8.90;;;;;;;4.42;93.63;100761.70;640237;224;25092;-76
2021/03/26 04:37:27;;;;;;;14.00;8.90;;;;;;;4.36;94.30;100761.23;627273;229;24832;-76
2021/03/26 04:39:56;;;;;;;12.63;8.73;;;;;;;4.12;93.73;100757.92;628975;228;24931;-76
2021/03/26 04:42:27;;;;;;;15.10;9.00;;;;;;;4.03;94.15;100770.03;626275;225;24891;-76
2021/03/26 04:44:55;;;;;;;11.60;8.93;;;;;;;4.17;93.91;100763.62;626212;229;24874;-76
2021/03/26 04:47:23;;;;;;;11.93;8.40;;;;;;;4.10;94.01;100766.66;625188;229;24797;-75
2021/03/26 04:49:52;;;;;;;13.13;9.17;;;;;;;3.73;96.26;100773.92;637743;225;24781;-75
2021/03/26 04:52:20;;;;;;;13.07;9.97;;;;;;;3.55;95.63;100777.55;626275;225;27014;-76
2021/03/26 04:54:49;;;;;;;16.27;10.33;;;;;;;3.39;96.57;100779.32;629145;228;24919;-76
2021/03/26 04:57:17;;;;;;;16.93;10.90;;;;;;;3.57;96.21;100768.83;622411;228;33237;-75
2021/03/26 04:59:45;;;;;;;14.78;10.35;;;;;;;3.97;95.55;100769.12;616774;229;33092;-75
2021/03/26 05:02:13;;;;;;;20.23;12.23;;;;;;;3.91;98.84;100786.18;637795;221;23725;-78
2021/03/26 05:04:42;;;;;;;17.47;10.03;;;;;;;3.36;97.81;100771.30;638812;224;24803;-78
2021/03/26 05:07:10;;;;;;;15.20;9.83;;;;;;;3.39;99.49;100769.87;639224;224;24805;-75
2021/03/26 05:09:38;;;;;;;18.13;10.90;;;;;;;3.86;100.00;100774.05;621740;228;25094;-75
2021/03/26 05:12:07;;;;;;;15.10;10.60;;;;;;;3.86;99.89;100772.30;629412;225;24859;-75
2021/03/26 05:14:35;;;;;;;15.33;10.00;;;;;;;3.83;99.15;100769.91;626134;227;28010;-77
2021/03/26 05:17:04;;;;;;;17.50;11.65;;;;;;;4.44;96.82;100771.45;621289;227;33079;-75
2021/03/26 05:19:33;;;;;;;14.00;11.10;;;;;;;4.72;95.19;100759.01;620503;229;32905;-75
2021/03/26 05:22:01;;;;;;;13.53;10.03;;;;;;;4.09;96.33;100766.29;637872;222;24823;-75
2021/03/26 05:24:29;;;;;;;17.20;9.90;;;;;;;3.83;97.17;100768.63;638089;224;24857;-76
2021/03/26 05:26:57;;;;;;;12.87;9.10;;;;;;;3.86;97.39;100770.19;635923;224;24879;-76
2021/03/26 05:29:25;;;;;;;16.23;9.80;;;;;;;3.94;97.81;100774.45;638512;225;24833;-75
2021/03/26 05:31:57;;;;;;;17.33;9.70;;;;;;;4.09;97.04;100768.41;626513;225;24907;-75
2021/03/26 05:34:25;;;;;;;14.75;10.68;;;;;;;4.59;94.02;100763.25;614670;227;33387;-75
2021/03/26 05:36:57;;;;;;;15.55;10.80;;;;;;;4.90;92.13;100767.80;630026;223;32750;-75
2021/03/26 05:39:24;;;;;;;13.60;9.80;;;;;;;4.39;93.19;100765.75;627184;229;23680;-75
2021/03/26 05:42:05;;;;;;;13.77;9.50;;;;;;;4.31;93.26;100769.70;627442;225;24884;-75
2021/03/26 05:44:37;;;;;;;15.43;9.30;;;;;;;4.19;93.79;100773.81;640091;223;24905;-75
2021/03/26 05:47:13;;;;;;;14.43;9.63;;;;;;;4.15;93.82;100771.06;626233;229;24837;-74
2021/03/26 05:49:46;;;;;;;11.47;8.10;;;;;;;4.01;94.29;100782.63;624543;228;24799;-75
2021/03/26 05:52:37;;;;;;;14.03;8.30;;;;;;;4.03;94.26;100775.18;635982;225;24754;-75
2021/03/26 05:55:11;;;;;;;10.90;7.83;;;;;;;3.79;94.81;100781.73;627357;228;28009;-75
2021/03/26 05:57:42;;;;;;;14.70;8.40;;;;;;;3.83;95.19;100782.78;624252;229;25394;-75
2021/03/26 06:00:17;;;;;;;15.13;9.33;;;;;;;3.69;97.11;100780.63;622925;229;24869;-75
2021/03/26 06:02:53;;;;;;;15.03;9.73;;;;;;;4.02;96.48;100783.82;622106;225;24809;-75
2021/03/26 06:05:28;;;;;;;13.60;9.00;;;;;;;3.96;97.15;100785.94;627626;228;24840;-75
2021/03/26 06:08:04;;;;;;;13.10;8.60;;;;;;;4.09;97.11;100781.73;627922;228;24832;-75
2021/03/26 06:10:38;;;;;;;13.20;8.70;;;;;;;4.28;97.04;100784.88;628217;228;25894;-75
2021/03/26 06:13:23;;;;;;;12.67;8.60;;;;;;;4.24;97.16;100787.73;625740;225;24864;-75
2021/03/26 06:16:01;;;;;;;15.40;9.67;;;;;;;4.49;97.54;100793.05;627313;228;24848;-75
2021/03/26 06:18:38;;;;;;;16.63;11.90;;;;;;;5.14;95.31;100784.33;622761;228;33001;-75
2021/03/26 06:21:24;;;;;;;13.30;10.20;;;;;;;5.00;96.14;100785.65;627245;227;24848;-74
2021/03/26 06:24:07;;;;;;;19.10;12.30;;;;;;;5.19;95.23;100782.73;628780;225;25150;-74
2021/03/26 06:26:42;;;;;;;19.70;13.40;;;;;;;6.05;92.47;100772.87;621643;229;33088;-75
2021/03/26 06:29:15;;;;;;;15.40;10.73;;;;;;;5.65;93.50;100778.07;626865;229;24818;-75
2021/03/26 06:32:05;;;;;;;15.70;11.50;;;;;;;5.67;93.63;100778.80;625469;226;25523;-75
2021/03/26 06:34:41;;;;;;;21.07;10.50;;;;;;;5.62;94.78;100780.83;625391;229;24939;-74
2021/03/26 06:37:24;;;;;;;15.03;11.13;;;;;;;5.83;94.56;100785.89;640460;223;24795;-75
2021/03/26 06:39:59;;;;;;;18.60;13.27;;;;;;;6.19;93.87;100784.40;641087;223;24830;-75
2021/03/26 06:42:31;;;;;;;22.20;12.10;;;;;;;6.20;93.80;100783.50;639683;221;24950;-75
2021/03/26 06:45:23;;;;;;;20.60;13.58;;;;;;;6.96;90.60;100773.05;634526;224;32853;-75
2021/03/26 06:47:55;;;;;;;16.63;11.60;;;;;;;6.52;92.34;100779.55;641890;223;23657;-76
2021/03/26 06:50:30;;;;;;;17.27;12.00;;;;;;;6.70;92.08;100778.73;639369;224;24807;-75
2021/03/26 06:53:04;;;;;;;18.57;12.73;;;;;;;6.80;92.14;100773.77;639716;220;26957;-76
2021/03/26 06:55:37;;;;;;;18.90;12.67;;;;;;;6.87;92.67;100780.61;639704;224;28030;-75
2021/03/26 06:58:13;;;;;;;22.33;10.97;;;;;;;7.12;91.16;100771.02;625767;229;24833;-76
2021/03/26 07:00:52;;;;;;;16.53;12.57;;;;;;;7.37;90.70;100775.27;620328;230;25102;-76
2021/03/26 07:03:27;;;;;;;19.60;14.53;;;;;;;8.10;88.26;100761.25;617403;230;33373;-74
2021/03/26 07:06:07;;;;;;;17.70;13.03;;;;;;;7.80;89.27;100761.78;635207;225;23651;-76
2021/03/26 07:08:43;;;;;;;22.60;13.00;;;;;;;7.73;89.42;100765.27;638396;224;24838;-75
2021/03/26 07:11:18;;;;;;;15.07;11.53;;;;;;;7.49;90.77;100766.27;633566;225;24806;-75
2021/03/26 07:13:58;;;;;;;23.00;12.80;;;;;;;7.46;92.20;100776.38;634327;224;24812;-75
2021/03/26 07:16:58;;;;;;;15.50;11.00;;;;;;;7.68;91.49;100772.56;639166;224;24823;-75
2021/03/26 07:19:41;;;;;;;22.77;14.80;;;;;;;8.28;90.01;100759.84;631194;224;32632;-75
2021/03/26 07:22:14;;;;;;;20.43;13.80;;;;;;;8.07;91.73;100773.14;626105;226;23894;-74
2021/03/26 07:24:50;;;;;;;23.10;14.17;;;;;;;8.40;90.41;100766.37;624736;229;24800;-75
2021/03/26 07:27:23;;;;;;;27.90;14.50;;;;;;;8.40;89.59;100764.59;635536;225;24861;-75
2021/03/26 07:29:55;;;;;;;23.10;14.40;;;;;;;8.52;89.29;100761.07;634001;225;24828;-75
2021/03/26 07:32:28;;;;;;;23.10;14.47;;;;;;;8.72;89.31;100760.81;633529;225;25411;-75
2021/03/26 07:35:19;;;;;;;21.25;15.60;;;;;;;9.19;87.78;100755.78;621454;228;32762;-76
2021/03/26 07:37:49;;;;;;;18.90;13.90;;;;;;;9.04;87.47;100750.98;622935;227;23757;-75
2021/03/26 07:40:35;;;;;;;22.13;13.60;;;;;;;9.18;87.62;100761.09;629728;226;25136;-75
2021/03/26 07:43:07;;;;;;;20.80;13.57;;;;;;;9.15;87.66;100761.34;637506;221;23774;-76
2021/03/26 07:45:45;;;;;;;19.83;13.80;;;;;;;9.30;87.19;100764.00;627624;229;24844;-76
2021/03/26 07:48:24;;;;;;;21.60;14.10;;;;;;;9.48;87.14;100766.88;625867;229;24769;-75
2021/03/26 07:50:57;;;;;;;20.17;12.77;;;;;;;9.63;86.26;100766.11;639653;224;23789;-75
2021/03/26 07:53:34;;;;;;;25.45;15.60;;;;;;;10.12;84.85;100753.28;632228;223;43640;-75
2021/03/26 07:56:04;;;;;;;27.60;15.20;;;;;;;9.98;85.56;100756.69;633312;225;23722;-76
2021/03/26 07:58:41;;;;;;;21.73;14.30;;;;;;;9.99;85.59;100753.98;622968;229;24797;-76
2021/03/26 08:01:22;;;;;;;22.23;14.93;;;;;;;9.87;84.94;100764.58;628711;228;24886;-76
2021/03/26 08:03:57;;;;;;;21.60;14.20;;;;;;;10.35;83.99;100759.66;626785;225;25085;-76
2021/03/26 08:06:35;;;;;;;24.93;14.87;;;;;;;10.37;83.63;100757.27;625424;229;25085;-75
2021/03/26 08:09:14;;;;;;;21.37;14.10;;;;;;;10.40;82.63;100751.80;627203;228;24845;-76
2021/03/26 08:11:51;;;;;;;23.02;16.30;;;;;;;11.18;81.31;100745.52;621129;226;32868;-75
2021/03/26 08:14:33;;;;;;;20.55;15.35;;;;;;;11.49;79.79;100742.29;632819;225;32969;-75
2021/03/26 08:17:12;;;;;;;21.10;14.90;;;;;;;11.38;79.48;100738.03;637496;224;23631;-75
2021/03/26 08:19:43;;;;;;;25.83;15.43;;;;;;;11.45;79.64;100742.23;637282;225;28052;-75
2021/03/26 08:22:15;;;;;;;22.20;15.00;;;;;;;11.15;79.80;100736.20;637578;220;24868;-75
2021/03/26 08:25:13;;;;;;;21.67;14.77;;;;;;;11.59;79.11;100733.52;632821;225;24803;-76
2021/03/26 08:27:44;;;;;;;26.53;15.53;;;;;;;11.78;78.89;100736.56;631614;225;24769;-75
2021/03/26 08:30:25;;;;;;;17.63;13.60;;;;;;;11.65;78.92;100737.34;640786;223;24781;-75
2021/03/26 08:33:00;;;;;;;19.17;12.60;;;;;;;11.78;77.91;100732.66;641474;221;24892;-75
2021/03/26 08:35:52;;;;;;;23.73;13.30;;;;;;;11.73;77.87;100730.14;641105;224;25945;-76
2021/03/26 08:38:27;;;;;;;23.43;12.60;;;;;;;11.83;77.79;100726.59;635496;225;24780;-75
2021/03/26 08:40:57;;;;;;;21.63;13.20;;;;;;;11.93;76.80;100729.64;625598;229;23977;-76
2021/03/26 08:43:24;;;;;;;17.57;12.77;;;;;;;12.09;75.60;100728.08;622026;228;27018;-75
2021/03/26 08:45:52;;;;;;;19.77;13.00;;;;;;;12.46;75.41;100728.08;634081;224;24830;-76
2021/03/26 08:48:24;;;;;;;19.98;13.98;;;;;;;12.87;74.31;100723.33;620596;229;32898;-76
2021/03/26 08:50:53;;;;;;;20.80;13.63;;;;;;;12.54;74.74;100721.33;640481;223;23667;-76
2021/03/26 08:53:25;;;;;;;17.87;12.10;;;;;;;12.65;74.55;100725.02;639291;221;24832;-75
2021/03/26 08:56:10;;;;;;;17.65;13.10;;;;;;;12.78;73.71;100710.66;634289;224;32768;-75
2021/03/26 08:58:46;;;;;;;21.33;12.00;;;;;;;12.33;75.31;100721.06;640764;221;22684;-74
2021/03/26 09:01:22;;;;;;;17.10;12.67;;;;;;;12.56;74.05;100724.61;625059;229;24815;-75
2021/03/26 09:03:53;;;;;;;14.50;10.43;;;;;;;12.61;73.67;100709.33;625345;225;25081;-75
2021/03/26 09:06:31;;;;;;;20.03;11.53;;;;;;;12.85;72.95;100710.09;625661;229;25091;-75
2021/03/26 09:09:10;;;;;;;16.60;11.20;;;;;;;13.22;72.91;100704.74;638357;224;23861;-76
2021/03/26 09:11:45;;;;;;;20.50;10.87;;;;;;;13.58;71.47;100705.53;638529;222;24818;-76
2021/03/26 09:14:19;;;;;;;15.07;10.73;;;;;;;13.87;70.32;100694.29;637895;225;24759;-76
2021/03/26 09:16:49;;;;;;;18.33;11.30;;;;;;;14.00;70.61;100698.28;629063;228;24833;-76
2021/03/26 09:19:17;;;;;;;18.57;11.00;;;;;;;14.19;69.34;100692.33;638548;225;23781;-75
2021/03/26 09:21:48;;;;;;;22.40;12.13;;;;;;;14.21;69.34;100687.75;628497;225;23952;-75
2021/03/26 09:24:24;;;;;;;20.77;11.70;;;;;;;14.72;69.33;100683.38;625321;229;25101;-74
2021/03/26 09:26:58;;;;;;;20.32;12.25;;;;;;;15.00;67.34;100683.11;620349;229;32798;-74
2021/03/26 09:29:26;;;;;;;17.73;10.80;;;;;;;15.14;66.18;100665.43;624491;229;22699;-74
2021/03/26 09:31:54;;;;;;;17.13;10.93;;;;;;;14.82;67.27;100663.61;626378;226;23851;-74
2021/03/26 09:34:25;;;;;;;17.97;11.50;;;;;;;15.00;66.49;100662.97;625463;228;23844;-76
2021/03/26 09:36:59;;;;;;;17.80;11.10;;;;;;;15.12;67.18;100666.91;635629;224;23821;-75
2021/03/26 09:39:27;;;;;;;15.93;10.40;;;;;;;15.15;67.74;100669.69;626154;229;23829;-76
2021/03/26 09:41:57;;;;;;;16.85;12.35;;;;;;;15.83;66.28;100661.94;620532;229;33135;-74
2021/03/26 09:44:26;;;;;;;16.80;11.03;;;;;;;16.00;64.79;100659.59;625817;228;23709;-75
2021/03/26 09:46:54;;;;;;;16.47;11.83;;;;;;;16.07;63.87;100650.06;637430;225;23776;-76
2021/03/26 09:49:23;;;;;;;19.90;12.00;;;;;;;15.76;64.85;100642.59;624374;228;24890;-75
2021/03/26 09:51:52;;;;;;;18.20;11.20;;;;;;;15.80;64.05;100638.19;624921;226;25945;-75
2021/03/26 09:54:23;;;;;;;20.93;10.97;;;;;;;15.93;62.95;100633.72;625989;226;24903;-75
2021/03/26 09:56:54;;;;;;;15.93;10.63;;;;;;;15.11;63.46;100624.66;627639;227;23871;-74
2021/03/26 09:59:25;;;;;;;18.40;10.90;;;;;;;15.55;64.25;100626.08;628111;228;24190;-75
2021/03/26 10:01:54;;;;;;;17.07;11.40;;;;;;;14.88;64.70;100618.91;627349;226;24846;-74
2021/03/26 10:04:22;;;;;;;15.70;10.60;;;;;;;15.29;63.50;100621.85;625414;226;23878;-76
2021/03/26 10:06:57;;;;;;;15.08;11.80;;;;;;;16.03;61.58;100616.77;621518;227;32850;-76
2021/03/26 10:09:27;;;;;;;16.60;11.20;;;;;;;16.38;62.31;100615.14;626422;228;23723;-75
2021/03/26 10:12:13;;;;;;;15.37;10.70;;;;;;;16.59;61.88;100612.20;625723;226;23899;-75
2021/03/26 10:14:45;;;;;;;16.80;11.30;;;;;;;16.53;60.52;100596.33;634432;225;26070;-75
2021/03/26 10:17:24;;;;;;;17.67;11.00;;;;;;;16.92;61.82;100601.50;624361;229;26988;-75
2021/03/26 10:19:52;;;;;;;18.07;11.70;;;;;;;16.88;61.05;100598.89;625233;228;25447;-76
2021/03/26 10:22:21;;;;;;;12.80;9.93;;;;;;;16.80;61.04;100588.46;637809;225;27972;-74
2021/03/26 10:24:49;;;;;;;18.70;11.30;;;;;;;17.16;61.70;100589.44;624851;229;24875;-74
2021/03/26 10:27:17;;;;;;;15.03;10.80;;;;;;;17.21;59.82;100583.17;636312;224;23884;-75
2021/03/26 10:29:46;;;;;;;16.67;11.33;;;;;;;17.12;60.90;100577.66;627815;228;24195;-75
2021/03/26 10:32:16;;;;;;;16.57;12.25;;;;;;;17.37;60.94;100573.48;633064;222;32798;-75
2021/03/26 10:34:44;;;;;;;19.50;11.83;;;;;;;17.01;58.93;100566.75;621291;229;23689;-74
2021/03/26 10:37:28;;;;;;;17.53;10.60;;;;;;;16.66;61.90;100569.49;639152;223;24789;-75
2021/03/26 10:39:57;;;;;;;19.47;11.00;;;;;;;17.66;59.22;100560.33;638166;224;23856;-75
2021/03/26 10:42:35;;;;;;;14.43;10.60;;;;;;;17.05;58.18;100555.73;638598;221;25961;-75
2021/03/26 10:45:14;;;;;;;18.40;11.10;;;;;;;17.24;58.43;100548.31;639671;224;25052;-74
2021/03/26 10:47:44;;;;;;;21.53;11.00;;;;;;;17.53;58.36;100546.19;637669;225;23785;-75
2021/03/26 10:50:22;;;;;;;18.20;10.30;;;;;;;17.35;58.76;100538.67;624665;229;23820;-75
2021/03/26 10:52:46;;;;;;;21.07;10.07;;;;;;;17.23;57.73;100543.55;634698;221;24131;-76
2021/03/26 10:55:14;;;;;;;15.93;10.40;;;;;;;17.60;56.67;100543.16;623218;229;23807;-75
2021/03/26 10:57:42;;;;;;;13.73;9.33;;;;;;;17.87;56.76;100537.73;633044;225;24908;-75
2021/03/26 11:00:17;;;;;;;14.40;9.93;;;;;;;17.85;56.23;100527.89;633809;225;23843;-75
2021/03/26 11:03:04;;;;;;;13.43;7.63;;;;;;;16.88;56.78;100522.19;634869;220;23847;-78
2021/03/26 11:05:34;;;;;;;13.07;6.50;;;;;;;16.49;56.56;100521.53;639334;223;23824;-74
2021/03/26 11:08:10;;;;;;;9.60;7.73;;;;;;;16.59;57.09;100521.59;639638;223;24787;-76
2021/03/26 11:10:38;;;;;;;9.30;7.03;;;;;;;17.41;55.68;100519.52;627983;229;24899;-76
2021/03/26 11:13:06;;;;;;;11.60;5.80;;;;;;;17.11;53.42;100494.55;622238;225;32745;-77
2021/03/26 11:15:34;;;;;;;10.27;7.43;;;;;;;16.75;55.40;100509.34;635706;224;23689;-74
2021/03/26 11:18:03;;;;;;;10.07;7.37;;;;;;;17.17;57.03;100506.14;636320;224;23842;-74
2021/03/26 11:20:34;;;;;;;10.30;7.27;;;;;;;16.76;55.55;100496.55;642734;223;23794;-75
2021/03/26 11:23:06;;;;;;;12.70;7.90;;;;;;;16.92;55.23;100487.20;640216;220;24776;-77
2021/03/26 11:25:34;;;;;;;10.67;7.40;;;;;;;16.58;56.15;100483.19;625347;228;24792;-75
2021/03/26 11:28:02;;;;;;;11.00;7.43;;;;;;;16.54;56.82;100488.48;639386;225;24770;-77
2021/03/26 11:30:36;;;;;;;12.83;8.53;;;;;;;17.13;57.40;100485.98;638447;225;24759;-75
2021/03/26 11:33:06;;;;;;;12.30;7.90;;;;;;;17.93;56.37;100479.11;622909;228;24895;-74
2021/03/26 11:35:35;;;;;;;11.83;7.10;;;;;;;17.42;55.42;100467.24;624113;229;23843;-75